Franconia — 3FWI7 — position and weather

sailwx.info

Track history (hours):
 
Tides and Currents Weather Stations Pressure Air Temp Water Temp Dewpoint Dewpoint Depression Visibility Wind Speed Wind Dir Waves Ship Positions

Franconia

Last reported at 2018-Feb-22 17:41 UTC. Time now 2018-Feb-23 06:41 UTC.
Position N 35°59' W 005°13'.

Type: Cargo ship. MMSI: 351732000.

Date/timePositionNaut miles runAvg speedWind from/ knotsBaromVisibWave heightAir tempDewpointWater temp
2018-Feb-22 17:41N 35°59' W 005°13'318.4
2018-Feb-22 17:30N 35°59' W 005°17'917.6
2018-Feb-22 17:00N 35°57' W 005°28'22413.5
2018-Feb-22 00:26N 37°27' W 009°44'614.9
2018-Feb-22 00:00N 37°34' W 009°46'815.3
2018-Feb-21 23:30N 37°41' W 009°49'815.2
2018-Feb-21 23:00N 37°48' W 009°51'815.5
2018-Feb-21 22:30N 37°56' W 009°53'815.9
2018-Feb-21 22:00N 38°04' W 009°56'815.8
2018-Feb-21 21:30N 38°11' W 009°58'815.9
2018-Feb-21 21:00N 38°19' W 010°00'815.5
2018-Feb-21 20:30N 38°27' W 010°03'815.6
2018-Feb-21 20:00N 38°34' W 010°05'815.4
2018-Feb-21 19:30N 38°42' W 010°06'815.6
2018-Feb-21 19:00N 38°50' W 010°06'815.4
2018-Feb-21 18:30N 38°57' W 010°06'815.3
2018-Feb-21 18:00N 39°05' W 010°06'815.2
2018-Feb-21 17:30N 39°12' W 010°06'815.4
2018-Feb-21 17:00N 39°20' W 010°06'815.4
2018-Feb-21 16:30N 39°28' W 010°06'815.5
2018-Feb-21 16:00N 39°36' W 010°06'46714.4
2018-Feb-20 07:35N 47°05' W 007°12'11013.7
2018-Feb-19 23:31N 48°43' W 005°57'0 0.0
2018-Feb-19 23:30N 48°43' W 005°57'1015.3
2018-Feb-19 22:52N 48°51' W 005°49'513.9
2018-Feb-19 22:30N 48°55' W 005°44'713.5
2018-Feb-19 21:59N 48°58' W 005°35'613.5
2018-Feb-19 21:30N 49°02' W 005°26'812.7
2018-Feb-19 20:54N 49°05' W 005°16'8612.8
2018-Feb-19 14:08N 49°49' W 003°22'714.8
2018-Feb-19 13:39N 49°53' W 003°12'214.6
2018-Feb-19 13:30N 49°54' W 003°09'714.4
2018-Feb-19 13:00N 49°58' W 002°60'713.6
2018-Feb-19 12:30N 50°01' W 002°50'713.0
2018-Feb-19 12:00N 50°03' W 002°40'712.1
2018-Feb-19 11:27N 50°05' W 002°30'1510.7
2018-Feb-19 10:02N 50°08' W 002°08'0 9.9
2018-Feb-19 10:00N 50°08' W 002°07'5 9.8
2018-Feb-19 09:30N 50°10' W 001°60'5 9.9
2018-Feb-19 09:00N 50°11' W 001°52'510.5
2018-Feb-19 08:31N 50°12' W 001°44'611.4
2018-Feb-19 08:00N 50°14' W 001°36'712.5
2018-Feb-19 07:28N 50°16' W 001°25'613.6
2018-Feb-19 07:00N 50°17' W 001°16'3415.9
2018-Feb-19 04:53N 50°27' W 000°25'615.8
2018-Feb-19 04:30N 50°28' W 000°16'815.6
2018-Feb-19 04:00N 50°30' W 000°05'815.0
2018-Feb-19 03:30N 50°32' E 000°07'714.7
2018-Feb-19 03:00N 50°34' E 000°18'714.2
2018-Feb-19 02:30N 50°36' E 000°29'713.5
2018-Feb-19 02:01N 50°39' E 000°38'713.2
2018-Feb-19 01:31N 50°43' E 000°47'612.7
2018-Feb-19 01:00N 50°46' E 000°55'712.4
2018-Feb-19 00:28N 50°50' E 001°04'712.3
2018-Feb-18 23:56N 50°55' E 001°11'612.8
2018-Feb-18 23:30N 50°59' E 001°17'714.1
2018-Feb-18 23:00N 51°03' E 001°26'815.6
2018-Feb-18 22:30N 51°08' E 001°35'816.4
2018-Feb-18 22:00N 51°14' E 001°45'816.5
2018-Feb-18 21:30N 51°20' E 001°53'815.3
2018-Feb-18 21:01N 51°26' E 002°00'714.7
2018-Feb-18 20:30N 51°32' E 002°07'714.2
2018-Feb-18 20:00N 51°38' E 002°14'713.9
2018-Feb-18 19:28N 51°44' E 002°21'613.4
2018-Feb-18 19:00N 51°48' E 002°28'1612.9
2018-Feb-18 17:47N 52°00' E 002°44'512.4
2018-Feb-18 17:22N 52°05' E 002°50'512.1
2018-Feb-18 16:57N 52°08' E 002°55'1411.8
2018-Feb-18 15:46N 52°20' E 003°09'511.9
2018-Feb-18 15:20N 52°24' E 003°14'412.1
2018-Feb-18 15:00N 52°27' E 003°18'812.6
2018-Feb-18 14:21N 52°33' E 003°26'713.4
2018-Feb-18 13:49N 52°39' E 003°33'613.9
2018-Feb-18 13:24N 52°44' E 003°39'714.2
2018-Feb-18 12:52N 52°49' E 003°48'614.3
2018-Feb-18 12:28N 52°54' E 003°54'714.3
2018-Feb-18 12:01N 52°58' E 004°01'714.3
2018-Feb-18 11:30N 53°03' E 004°10'714.3
2018-Feb-18 11:00N 53°08' E 004°19'714.0
2018-Feb-18 10:31N 53°13' E 004°26'713.9
2018-Feb-18 10:00N 53°20' E 004°31'1212.6
2018-Feb-18 09:04N 53°30' E 004°42'112.6
2018-Feb-18 08:59N 53°30' E 004°44'612.4
2018-Feb-18 08:30N 53°33' E 004°53'812.1
2018-Feb-18 07:52N 53°35' E 005°05'511.8
2018-Feb-18 07:25N 53°37' E 005°13'512.0
2018-Feb-18 07:00N 53°38' E 005°22'9112.9
2018-Feb-17 23:57N 53°52' E 007°53'612.8
2018-Feb-17 23:30N 53°51' E 008°03'613.0
2018-Feb-17 23:00N 53°46' E 008°11'612.6
2018-Feb-17 22:30N 53°42' E 008°19'611.9
2018-Feb-17 22:00N 53°38' E 008°26'611.9
2018-Feb-17 21:30N 53°34' E 008°33'1 1.1
2018-Feb-17 21:00N 53°33' E 008°34'0 0.0
2018-Feb-17 20:30N 53°33' E 008°34'0 0.9
2018-Feb-17 20:00N 53°34' E 008°34'0 0.0
2018-Feb-17 19:30N 53°34' E 008°34'0 0.0
2018-Feb-17 19:00N 53°34' E 008°34'0 0.0
2018-Feb-17 18:30N 53°34' E 008°34'0 0.0
2018-Feb-17 18:00N 53°34' E 008°34'0 0.0
2018-Feb-17 17:30N 53°34' E 008°34'0 0.0
2018-Feb-17 17:00N 53°34' E 008°34'0 0.0
2018-Feb-17 16:30N 53°34' E 008°34'0 0.0
2018-Feb-17 16:00N 53°34' E 008°34'0 0.0
2018-Feb-17 15:30N 53°34' E 008°34'0 0.0
2018-Feb-17 15:00N 53°34' E 008°34'0 0.0
2018-Feb-17 14:30N 53°34' E 008°34'0 0.0
2018-Feb-17 14:00N 53°34' E 008°34'0 0.0
2018-Feb-17 13:30N 53°34' E 008°34'0 0.0
2018-Feb-17 12:59N 53°34' E 008°34'0 0.0
2018-Feb-17 12:29N 53°34' E 008°34'0 0.0
2018-Feb-17 11:59N 53°34' E 008°34'0 0.0
2018-Feb-17 11:30N 53°34' E 008°34'0 0.0
2018-Feb-17 10:59N 53°34' E 008°34'0 0.0
2018-Feb-17 10:29N 53°34' E 008°34'0 0.0
2018-Feb-17 09:59N 53°34' E 008°34'0 0.0
2018-Feb-17 09:29N 53°34' E 008°34'0 0.0
2018-Feb-17 08:59N 53°34' E 008°34'0 0.0
2018-Feb-17 08:29N 53°34' E 008°34'0 0.0
2018-Feb-17 07:59N 53°34' E 008°34'0 0.0
2018-Feb-17 07:29N 53°34' E 008°34'0 0.0
2018-Feb-17 06:59N 53°34' E 008°34'0 0.0
2018-Feb-17 06:29N 53°34' E 008°34'0 0.0
2018-Feb-17 05:59N 53°34' E 008°34'0 0.0
2018-Feb-17 05:29N 53°34' E 008°34'0 0.0
2018-Feb-17 04:59N 53°34' E 008°34'0 0.0
2018-Feb-17 04:29N 53°34' E 008°34'0 0.0
2018-Feb-17 03:59N 53°34' E 008°34'0 0.0
2018-Feb-17 03:29N 53°34' E 008°34'0 0.0
2018-Feb-17 02:59N 53°34' E 008°34'0 0.0
2018-Feb-17 02:29N 53°34' E 008°34'0 0.0
2018-Feb-17 01:59N 53°34' E 008°34'0 0.0
2018-Feb-17 01:29N 53°34' E 008°34'0 0.0
2018-Feb-17 00:59N 53°34' E 008°34'0 1.0
2018-Feb-17 00:30N 53°33' E 008°34'0 0.0
2018-Feb-17 00:01N 53°33' E 008°34'1 1.5
2018-Feb-16 23:30N 53°34' E 008°33'611.4
2018-Feb-16 23:00N 53°38' E 008°26'917.0
2018-Feb-16 22:30N 53°44' E 008°15'816.7
2018-Feb-16 22:00N 53°50' E 008°05'11314.2
2018-Feb-16 14:01N 53°28' E 004°58'114.4
2018-Feb-16 13:58N 53°27' E 004°57'3913.6
2018-Feb-16 11:07N 52°57' E 004°18'214.2
2018-Feb-16 10:59N 52°55' E 004°17'714.2
2018-Feb-16 10:28N 52°48' E 004°11'714.2
2018-Feb-16 09:59N 52°43' E 004°03'714.4
2018-Feb-16 09:30N 52°38' E 003°56'714.4
2018-Feb-16 09:00N 52°33' E 003°48'713.8
2018-Feb-16 08:29N 52°28' E 003°40'6213.7
2018-Feb-16 04:00N 51°43' E 002°31'815.0
2018-Feb-16 03:30N 51°37' E 002°23'815.6
2018-Feb-16 03:00N 51°31' E 002°16'815.4
2018-Feb-16 02:31N 51°25' E 002°08'4 7.4
2018-Feb-16 02:00N 51°22' E 002°12'611.6
2018-Feb-16 01:31N 51°21' E 002°21'611.7
2018-Feb-16 01:01N 51°23' E 002°29'611.9
2018-Feb-16 00:30N 51°23' E 002°39'510.4
2018-Feb-16 00:00N 51°22' E 002°47'613.0
2018-Feb-15 23:30N 51°23' E 002°57'612.6
2018-Feb-15 23:00N 51°24' E 003°08'5 9.9
2018-Feb-15 22:30N 51°20' E 003°13'0 0.6
2018-Feb-15 21:58N 51°20' E 003°13'0 0.0
2018-Feb-15 21:28N 51°20' E 003°13'2 4.2
2018-Feb-15 21:00N 51°18' E 003°14'0 0.9
2018-Feb-15 20:29N 51°18' E 003°14'0 0.0
2018-Feb-15 19:59N 51°18' E 003°14'0 0.0
2018-Feb-15 19:29N 51°18' E 003°14'0 0.0
2018-Feb-15 18:59N 51°18' E 003°14'0 0.0
2018-Feb-15 18:29N 51°18' E 003°14'0 0.0
2018-Feb-15 17:59N 51°18' E 003°14'0 0.0
2018-Feb-15 17:29N 51°18' E 003°14'0 0.0
2018-Feb-15 16:59N 51°18' E 003°14'0 0.0
2018-Feb-15 16:29N 51°18' E 003°14'0 0.0
2018-Feb-15 16:00N 51°18' E 003°14'0 0.0
2018-Feb-15 15:29N 51°18' E 003°14'0 0.0
2018-Feb-15 14:59N 51°18' E 003°15'0 0.0
2018-Feb-15 14:29N 51°18' E 003°14'0 0.0
2018-Feb-15 13:59N 51°18' E 003°14'0 0.0
2018-Feb-15 13:29N 51°18' E 003°14'0 0.0
2018-Feb-15 12:59N 51°18' E 003°14'0 0.0
2018-Feb-15 12:29N 51°18' E 003°14'0 0.0
2018-Feb-15 11:59N 51°18' E 003°14'0 0.0
2018-Feb-15 11:29N 51°18' E 003°14'0 0.0
2018-Feb-15 10:59N 51°18' E 003°14'0 0.0
2018-Feb-15 10:29N 51°18' E 003°14'0 0.0
2018-Feb-15 09:59N 51°18' E 003°14'0 0.0
2018-Feb-15 09:28N 51°18' E 003°15'0 0.0
2018-Feb-15 08:58N 51°18' E 003°14'0 0.0
2018-Feb-15 08:28N 51°18' E 003°15'0 0.0
2018-Feb-15 07:58N 51°18' E 003°14'0 0.0
2018-Feb-15 07:28N 51°18' E 003°14'0 0.0
2018-Feb-15 06:58N 51°18' E 003°14'0 0.0
2018-Feb-15 06:25N 51°18' E 003°14'0 0.0
2018-Feb-15 05:58N 51°18' E 003°14'0 0.0
2018-Feb-15 05:28N 51°18' E 003°14'0 0.0
2018-Feb-15 04:58N 51°18' E 003°14'0 0.0
2018-Feb-15 04:28N 51°18' E 003°14'0 0.0
2018-Feb-15 03:58N 51°18' E 003°14'0 0.0
2018-Feb-15 03:28N 51°18' E 003°14'0 0.0
2018-Feb-15 02:58N 51°18' E 003°14'0 0.0
2018-Feb-15 02:28N 51°18' E 003°14'0 0.0
2018-Feb-15 01:58N 51°18' E 003°14'0 0.0
2018-Feb-15 01:28N 51°18' E 003°14'0 0.0
2018-Feb-15 00:58N 51°18' E 003°14'0 0.0
2018-Feb-15 00:28N 51°18' E 003°14'0 0.0
2018-Feb-14 23:55N 51°18' E 003°14'0 0.0
2018-Feb-14 23:28N 51°18' E 003°14'0 0.0
2018-Feb-14 22:58N 51°18' E 003°14'0 0.0
2018-Feb-14 22:28N 51°18' E 003°14'0 0.0
2018-Feb-14 21:55N 51°18' E 003°14'0 0.0
2018-Feb-14 21:28N 51°18' E 003°14'0 0.0
2018-Feb-14 20:58N 51°18' E 003°14'0 0.0
2018-Feb-14 20:28N 51°18' E 003°14'0 0.0
2018-Feb-14 19:58N 51°18' E 003°14'0 0.0
2018-Feb-14 19:28N 51°18' E 003°14'0 0.0
2018-Feb-14 18:58N 51°18' E 003°14'0 0.0
2018-Feb-14 18:28N 51°18' E 003°14'0 0.0
2018-Feb-14 17:58N 51°18' E 003°14'0 0.0
2018-Feb-14 17:28N 51°18' E 003°14'0 0.0
2018-Feb-14 16:58N 51°18' E 003°14'0 0.0
2018-Feb-14 16:28N 51°18' E 003°14'0 0.0
2018-Feb-14 15:58N 51°18' E 003°14'0 0.0
2018-Feb-14 15:28N 51°18' E 003°14'0 0.0
2018-Feb-14 14:58N 51°18' E 003°14'0 0.0
2018-Feb-14 14:28N 51°18' E 003°14'0 0.0
2018-Feb-14 13:58N 51°18' E 003°14'0 0.0
2018-Feb-14 13:28N 51°18' E 003°14'0 0.0
2018-Feb-14 12:58N 51°18' E 003°14'0 0.0
2018-Feb-14 12:28N 51°18' E 003°14'0 0.0
2018-Feb-14 11:58N 51°18' E 003°14'0 0.0
2018-Feb-14 11:28N 51°18' E 003°14'0 0.0
2018-Feb-14 10:58N 51°18' E 003°14'0 0.0
2018-Feb-14 10:28N 51°18' E 003°14'0 0.0
2018-Feb-14 09:58N 51°18' E 003°14'0 0.0
2018-Feb-14 09:28N 51°18' E 003°15'0 0.0
2018-Feb-14 08:58N 51°18' E 003°14'0 0.0
2018-Feb-14 08:28N 51°18' E 003°15'0 0.0
2018-Feb-14 07:58N 51°18' E 003°14'0 0.0
2018-Feb-14 07:28N 51°18' E 003°14'0 0.0
2018-Feb-14 06:58N 51°18' E 003°14'0 0.0
2018-Feb-14 06:28N 51°18' E 003°14'0 0.0
2018-Feb-14 05:58N 51°18' E 003°14'0 0.0
2018-Feb-14 05:28N 51°18' E 003°15'0 0.0
2018-Feb-14 04:58N 51°18' E 003°14'0 0.0
2018-Feb-14 04:31N 51°18' E 003°14'0 0.0
2018-Feb-14 04:00N 51°18' E 003°14'0 0.0
2018-Feb-14 03:30N 51°18' E 003°14'0 0.0
2018-Feb-14 03:00N 51°18' E 003°14'0 0.0
2018-Feb-14 02:30N 51°18' E 003°14'0 0.0
2018-Feb-14 02:00N 51°18' E 003°14'0 0.0
2018-Feb-14 01:30N 51°18' E 003°14'0 0.0
2018-Feb-14 01:00N 51°18' E 003°14'0 0.0
2018-Feb-14 00:30N 51°18' E 003°15'0 0.0
2018-Feb-14 00:00N 51°18' E 003°15'0 0.0
2018-Feb-13 23:30N 51°18' E 003°14'0 0.0
2018-Feb-13 23:00N 51°18' E 003°14'0 0.0
2018-Feb-13 22:30N 51°18' E 003°14'0 0.0
2018-Feb-13 22:00N 51°18' E 003°14'0 0.0
2018-Feb-13 21:30N 51°18' E 003°14'0 0.0
2018-Feb-13 21:00N 51°18' E 003°14'0 0.0
2018-Feb-13 20:30N 51°18' E 003°14'0 0.0
2018-Feb-13 20:00N 51°18' E 003°14'0 0.0
2018-Feb-13 19:30N 51°18' E 003°14'0 0.0
2018-Feb-13 19:00N 51°18' E 003°14'0 0.0
2018-Feb-13 18:30N 51°18' E 003°14'0 0.0
2018-Feb-13 17:57N 51°18' E 003°14'0 0.0
2018-Feb-13 17:30N 51°18' E 003°14'0 0.0
2018-Feb-13 17:00N 51°18' E 003°14'0 0.0
2018-Feb-13 16:30N 51°18' E 003°14'0 0.0
2018-Feb-13 16:00N 51°18' E 003°14'0 0.0
2018-Feb-13 15:30N 51°18' E 003°14'0 0.0
2018-Feb-13 15:00N 51°18' E 003°14'0 0.0
2018-Feb-13 14:30N 51°18' E 003°14'0 0.0
2018-Feb-13 13:57N 51°18' E 003°14'0 0.0
2018-Feb-13 13:27N 51°18' E 003°14'0 0.0
2018-Feb-13 13:00N 51°18' E 003°14'0 0.0
2018-Feb-13 12:30N 51°18' E 003°14'0 0.0
2018-Feb-13 11:57N 51°18' E 003°14'0 0.0
2018-Feb-13 11:30N 51°18' E 003°14'0 0.0
2018-Feb-13 11:00N 51°18' E 003°15'0 0.0
2018-Feb-13 10:30N 51°18' E 003°15'0 0.0
2018-Feb-13 10:00N 51°18' E 003°14'0 0.0
2018-Feb-13 09:30N 51°18' E 003°15'0 0.0
2018-Feb-13 09:00N 51°18' E 003°14'0 0.0
2018-Feb-13 08:30N 51°18' E 003°14'0 0.0
2018-Feb-13 08:00N 51°18' E 003°14'0 0.0
2018-Feb-13 07:30N 51°18' E 003°14'0 0.0
2018-Feb-13 07:00N 51°18' E 003°14'0 0.0
2018-Feb-13 06:30N 51°18' E 003°14'0 0.0
2018-Feb-13 06:00N 51°18' E 003°14'0 0.0
2018-Feb-13 05:30N 51°18' E 003°15'0 0.0
2018-Feb-13 05:00N 51°18' E 003°14'0 0.0
2018-Feb-13 04:30N 51°18' E 003°14'0 0.0
2018-Feb-13 04:00N 51°18' E 003°14'0 0.0
2018-Feb-13 03:30N 51°18' E 003°14'0 0.0
2018-Feb-13 03:00N 51°18' E 003°14'0 0.0
2018-Feb-13 02:30N 51°18' E 003°14'0 0.0
2018-Feb-13 02:00N 51°18' E 003°14'0 0.0
2018-Feb-13 01:30N 51°18' E 003°15'0 0.0
2018-Feb-13 01:00N 51°18' E 003°14'1 1.1
2018-Feb-13 00:28N 51°18' E 003°14'0 0.2
2018-Feb-12 23:58N 51°18' E 003°14'0 0.0
2018-Feb-12 23:28N 51°18' E 003°14'0 0.0
2018-Feb-12 22:58N 51°18' E 003°14'0 0.0
2018-Feb-12 22:28N 51°18' E 003°14'0 0.0
2018-Feb-12 21:58N 51°18' E 003°14'0 0.0
2018-Feb-12 21:28N 51°18' E 003°14'0 0.0
2018-Feb-12 20:58N 51°18' E 003°14'0 0.0
2018-Feb-12 20:28N 51°18' E 003°14'0 0.0
2018-Feb-12 19:58N 51°18' E 003°14'0 0.0
2018-Feb-12 19:25N 51°18' E 003°14'0 0.0
2018-Feb-12 18:58N 51°18' E 003°14'0 0.0
2018-Feb-12 18:28N 51°18' E 003°14'0 0.0
2018-Feb-12 17:58N 51°18' E 003°14'  
Track history (hours):
 
Tides and Currents Weather Stations Pressure Air Temp Water Temp Dewpoint Dewpoint Depression Visibility Wind Speed Wind Dir Waves Ship Positions

Franconia

Last reported at 2018-Feb-22 17:41 UTC. Time now 2018-Feb-23 06:41 UTC.
Position N 35°59' W 005°13'.

Type: Cargo ship. MMSI: 351732000.

Date/timePositionNaut miles runAvg speedWind from/ knotsBaromVisibWave heightAir tempDewpointWater temp
2018-Feb-22 17:41N 35°59' W 005°13'318.4
2018-Feb-22 17:30N 35°59' W 005°17'917.6
2018-Feb-22 17:00N 35°57' W 005°28'22413.5
2018-Feb-22 00:26N 37°27' W 009°44'614.9
2018-Feb-22 00:00N 37°34' W 009°46'815.3
2018-Feb-21 23:30N 37°41' W 009°49'815.2
2018-Feb-21 23:00N 37°48' W 009°51'815.5
2018-Feb-21 22:30N 37°56' W 009°53'815.9
2018-Feb-21 22:00N 38°04' W 009°56'815.8
2018-Feb-21 21:30N 38°11' W 009°58'815.9
2018-Feb-21 21:00N 38°19' W 010°00'815.5
2018-Feb-21 20:30N 38°27' W 010°03'815.6
2018-Feb-21 20:00N 38°34' W 010°05'815.4
2018-Feb-21 19:30N 38°42' W 010°06'815.6
2018-Feb-21 19:00N 38°50' W 010°06'815.4
2018-Feb-21 18:30N 38°57' W 010°06'815.3
2018-Feb-21 18:00N 39°05' W 010°06'815.2
2018-Feb-21 17:30N 39°12' W 010°06'815.4
2018-Feb-21 17:00N 39°20' W 010°06'815.4
2018-Feb-21 16:30N 39°28' W 010°06'815.5
2018-Feb-21 16:00N 39°36' W 010°06'46714.4
2018-Feb-20 07:35N 47°05' W 007°12'11013.7
2018-Feb-19 23:31N 48°43' W 005°57'0 0.0
2018-Feb-19 23:30N 48°43' W 005°57'1015.3
2018-Feb-19 22:52N 48°51' W 005°49'513.9
2018-Feb-19 22:30N 48°55' W 005°44'713.5
2018-Feb-19 21:59N 48°58' W 005°35'613.5
2018-Feb-19 21:30N 49°02' W 005°26'812.7
2018-Feb-19 20:54N 49°05' W 005°16'8612.8
2018-Feb-19 14:08N 49°49' W 003°22'714.8
2018-Feb-19 13:39N 49°53' W 003°12'214.6
2018-Feb-19 13:30N 49°54' W 003°09'714.4
2018-Feb-19 13:00N 49°58' W 002°60'713.6
2018-Feb-19 12:30N 50°01' W 002°50'713.0
2018-Feb-19 12:00N 50°03' W 002°40'712.1
2018-Feb-19 11:27N 50°05' W 002°30'1510.7
2018-Feb-19 10:02N 50°08' W 002°08'0 9.9
2018-Feb-19 10:00N 50°08' W 002°07'5 9.8
2018-Feb-19 09:30N 50°10' W 001°60'5 9.9
2018-Feb-19 09:00N 50°11' W 001°52'510.5
2018-Feb-19 08:31N 50°12' W 001°44'611.4
2018-Feb-19 08:00N 50°14' W 001°36'712.5
2018-Feb-19 07:28N 50°16' W 001°25'613.6
2018-Feb-19 07:00N 50°17' W 001°16'3415.9
2018-Feb-19 04:53N 50°27' W 000°25'615.8
2018-Feb-19 04:30N 50°28' W 000°16'815.6
2018-Feb-19 04:00N 50°30' W 000°05'815.0
2018-Feb-19 03:30N 50°32' E 000°07'714.7
2018-Feb-19 03:00N 50°34' E 000°18'714.2
2018-Feb-19 02:30N 50°36' E 000°29'713.5
2018-Feb-19 02:01N 50°39' E 000°38'713.2
2018-Feb-19 01:31N 50°43' E 000°47'612.7
2018-Feb-19 01:00N 50°46' E 000°55'712.4
2018-Feb-19 00:28N 50°50' E 001°04'712.3
2018-Feb-18 23:56N 50°55' E 001°11'612.8
2018-Feb-18 23:30N 50°59' E 001°17'714.1
2018-Feb-18 23:00N 51°03' E 001°26'815.6
2018-Feb-18 22:30N 51°08' E 001°35'816.4
2018-Feb-18 22:00N 51°14' E 001°45'816.5
2018-Feb-18 21:30N 51°20' E 001°53'815.3
2018-Feb-18 21:01N 51°26' E 002°00'714.7
2018-Feb-18 20:30N 51°32' E 002°07'714.2
2018-Feb-18 20:00N 51°38' E 002°14'713.9
2018-Feb-18 19:28N 51°44' E 002°21'613.4
2018-Feb-18 19:00N 51°48' E 002°28'1612.9
2018-Feb-18 17:47N 52°00' E 002°44'512.4
2018-Feb-18 17:22N 52°05' E 002°50'512.1
2018-Feb-18 16:57N 52°08' E 002°55'1411.8
2018-Feb-18 15:46N 52°20' E 003°09'511.9
2018-Feb-18 15:20N 52°24' E 003°14'412.1
2018-Feb-18 15:00N 52°27' E 003°18'812.6
2018-Feb-18 14:21N 52°33' E 003°26'713.4
2018-Feb-18 13:49N 52°39' E 003°33'613.9
2018-Feb-18 13:24N 52°44' E 003°39'714.2
2018-Feb-18 12:52N 52°49' E 003°48'614.3
2018-Feb-18 12:28N 52°54' E 003°54'714.3
2018-Feb-18 12:01N 52°58' E 004°01'714.3
2018-Feb-18 11:30N 53°03' E 004°10'714.3
2018-Feb-18 11:00N 53°08' E 004°19'714.0
2018-Feb-18 10:31N 53°13' E 004°26'713.9
2018-Feb-18 10:00N 53°20' E 004°31'1212.6
2018-Feb-18 09:04N 53°30' E 004°42'112.6
2018-Feb-18 08:59N 53°30' E 004°44'612.4
2018-Feb-18 08:30N 53°33' E 004°53'812.1
2018-Feb-18 07:52N 53°35' E 005°05'511.8
2018-Feb-18 07:25N 53°37' E 005°13'512.0
2018-Feb-18 07:00N 53°38' E 005°22'9112.9
2018-Feb-17 23:57N 53°52' E 007°53'612.8
2018-Feb-17 23:30N 53°51' E 008°03'613.0
2018-Feb-17 23:00N 53°46' E 008°11'612.6
2018-Feb-17 22:30N 53°42' E 008°19'611.9
2018-Feb-17 22:00N 53°38' E 008°26'611.9
2018-Feb-17 21:30N 53°34' E 008°33'1 1.1
2018-Feb-17 21:00N 53°33' E 008°34'0 0.0
2018-Feb-17 20:30N 53°33' E 008°34'0 0.9
2018-Feb-17 20:00N 53°34' E 008°34'0 0.0
2018-Feb-17 19:30N 53°34' E 008°34'0 0.0
2018-Feb-17 19:00N 53°34' E 008°34'0 0.0
2018-Feb-17 18:30N 53°34' E 008°34'0 0.0
2018-Feb-17 18:00N 53°34' E 008°34'0 0.0
2018-Feb-17 17:30N 53°34' E 008°34'0 0.0
2018-Feb-17 17:00N 53°34' E 008°34'0 0.0
2018-Feb-17 16:30N 53°34' E 008°34'0 0.0
2018-Feb-17 16:00N 53°34' E 008°34'0 0.0
2018-Feb-17 15:30N 53°34' E 008°34'0 0.0
2018-Feb-17 15:00N 53°34' E 008°34'0 0.0
2018-Feb-17 14:30N 53°34' E 008°34'0 0.0
2018-Feb-17 14:00N 53°34' E 008°34'0 0.0
2018-Feb-17 13:30N 53°34' E 008°34'0 0.0
2018-Feb-17 12:59N 53°34' E 008°34'0 0.0
2018-Feb-17 12:29N 53°34' E 008°34'0 0.0
2018-Feb-17 11:59N 53°34' E 008°34'0 0.0
2018-Feb-17 11:30N 53°34' E 008°34'0 0.0
2018-Feb-17 10:59N 53°34' E 008°34'0 0.0
2018-Feb-17 10:29N 53°34' E 008°34'0 0.0
2018-Feb-17 09:59N 53°34' E 008°34'0 0.0
2018-Feb-17 09:29N 53°34' E 008°34'0 0.0
2018-Feb-17 08:59N 53°34' E 008°34'0 0.0
2018-Feb-17 08:29N 53°34' E 008°34'0 0.0
2018-Feb-17 07:59N 53°34' E 008°34'0 0.0
2018-Feb-17 07:29N 53°34' E 008°34'0 0.0
2018-Feb-17 06:59N 53°34' E 008°34'0 0.0
2018-Feb-17 06:29N 53°34' E 008°34'0 0.0
2018-Feb-17 05:59N 53°34' E 008°34'0 0.0
2018-Feb-17 05:29N 53°34' E 008°34'0 0.0
2018-Feb-17 04:59N 53°34' E 008°34'0 0.0
2018-Feb-17 04:29N 53°34' E 008°34'0 0.0
2018-Feb-17 03:59N 53°34' E 008°34'0 0.0
2018-Feb-17 03:29N 53°34' E 008°34'0 0.0
2018-Feb-17 02:59N 53°34' E 008°34'0 0.0
2018-Feb-17 02:29N 53°34' E 008°34'0 0.0
2018-Feb-17 01:59N 53°34' E 008°34'0 0.0
2018-Feb-17 01:29N 53°34' E 008°34'0 0.0
2018-Feb-17 00:59N 53°34' E 008°34'0 1.0
2018-Feb-17 00:30N 53°33' E 008°34'0 0.0
2018-Feb-17 00:01N 53°33' E 008°34'1 1.5
2018-Feb-16 23:30N 53°34' E 008°33'611.4
2018-Feb-16 23:00N 53°38' E 008°26'917.0
2018-Feb-16 22:30N 53°44' E 008°15'816.7
2018-Feb-16 22:00N 53°50' E 008°05'11314.2
2018-Feb-16 14:01N 53°28' E 004°58'114.4
2018-Feb-16 13:58N 53°27' E 004°57'3913.6
2018-Feb-16 11:07N 52°57' E 004°18'214.2
2018-Feb-16 10:59N 52°55' E 004°17'714.2
2018-Feb-16 10:28N 52°48' E 004°11'714.2
2018-Feb-16 09:59N 52°43' E 004°03'714.4
2018-Feb-16 09:30N 52°38' E 003°56'714.4
2018-Feb-16 09:00N 52°33' E 003°48'713.8
2018-Feb-16 08:29N 52°28' E 003°40'6213.7
2018-Feb-16 04:00N 51°43' E 002°31'815.0
2018-Feb-16 03:30N 51°37' E 002°23'815.6
2018-Feb-16 03:00N 51°31' E 002°16'815.4
2018-Feb-16 02:31N 51°25' E 002°08'4 7.4
2018-Feb-16 02:00N 51°22' E 002°12'611.6
2018-Feb-16 01:31N 51°21' E 002°21'611.7
2018-Feb-16 01:01N 51°23' E 002°29'611.9
2018-Feb-16 00:30N 51°23' E 002°39'510.4
2018-Feb-16 00:00N 51°22' E 002°47'613.0
2018-Feb-15 23:30N 51°23' E 002°57'612.6
2018-Feb-15 23:00N 51°24' E 003°08'5 9.9
2018-Feb-15 22:30N 51°20' E 003°13'0 0.6
2018-Feb-15 21:58N 51°20' E 003°13'0 0.0
2018-Feb-15 21:28N 51°20' E 003°13'2 4.2
2018-Feb-15 21:00N 51°18' E 003°14'0 0.9
2018-Feb-15 20:29N 51°18' E 003°14'0 0.0
2018-Feb-15 19:59N 51°18' E 003°14'0 0.0
2018-Feb-15 19:29N 51°18' E 003°14'0 0.0
2018-Feb-15 18:59N 51°18' E 003°14'0 0.0
2018-Feb-15 18:29N 51°18' E 003°14'0 0.0
2018-Feb-15 17:59N 51°18' E 003°14'0 0.0
2018-Feb-15 17:29N 51°18' E 003°14'0 0.0
2018-Feb-15 16:59N 51°18' E 003°14'0 0.0
2018-Feb-15 16:29N 51°18' E 003°14'0 0.0
2018-Feb-15 16:00N 51°18' E 003°14'0 0.0
2018-Feb-15 15:29N 51°18' E 003°14'0 0.0
2018-Feb-15 14:59N 51°18' E 003°15'0 0.0
2018-Feb-15 14:29N 51°18' E 003°14'0 0.0
2018-Feb-15 13:59N 51°18' E 003°14'0 0.0
2018-Feb-15 13:29N 51°18' E 003°14'0 0.0
2018-Feb-15 12:59N 51°18' E 003°14'0 0.0
2018-Feb-15 12:29N 51°18' E 003°14'0 0.0
2018-Feb-15 11:59N 51°18' E 003°14'0 0.0
2018-Feb-15 11:29N 51°18' E 003°14'0 0.0
2018-Feb-15 10:59N 51°18' E 003°14'0 0.0
2018-Feb-15 10:29N 51°18' E 003°14'0 0.0
2018-Feb-15 09:59N 51°18' E 003°14'0 0.0
2018-Feb-15 09:28N 51°18' E 003°15'0 0.0
2018-Feb-15 08:58N 51°18' E 003°14'0 0.0
2018-Feb-15 08:28N 51°18' E 003°15'0 0.0
2018-Feb-15 07:58N 51°18' E 003°14'0 0.0
2018-Feb-15 07:28N 51°18' E 003°14'0 0.0
2018-Feb-15 06:58N 51°18' E 003°14'0 0.0
2018-Feb-15 06:25N 51°18' E 003°14'0 0.0
2018-Feb-15 05:58N 51°18' E 003°14'0 0.0
2018-Feb-15 05:28N 51°18' E 003°14'0 0.0
2018-Feb-15 04:58N 51°18' E 003°14'0 0.0
2018-Feb-15 04:28N 51°18' E 003°14'0 0.0
2018-Feb-15 03:58N 51°18' E 003°14'0 0.0
2018-Feb-15 03:28N 51°18' E 003°14'0 0.0
2018-Feb-15 02:58N 51°18' E 003°14'0 0.0
2018-Feb-15 02:28N 51°18' E 003°14'0 0.0
2018-Feb-15 01:58N 51°18' E 003°14'0 0.0
2018-Feb-15 01:28N 51°18' E 003°14'0 0.0
2018-Feb-15 00:58N 51°18' E 003°14'0 0.0
2018-Feb-15 00:28N 51°18' E 003°14'0 0.0
2018-Feb-14 23:55N 51°18' E 003°14'0 0.0
2018-Feb-14 23:28N 51°18' E 003°14'0 0.0
2018-Feb-14 22:58N 51°18' E 003°14'0 0.0
2018-Feb-14 22:28N 51°18' E 003°14'0 0.0
2018-Feb-14 21:55N 51°18' E 003°14'0 0.0
2018-Feb-14 21:28N 51°18' E 003°14'0 0.0
2018-Feb-14 20:58N 51°18' E 003°14'0 0.0
2018-Feb-14 20:28N 51°18' E 003°14'0 0.0
2018-Feb-14 19:58N 51°18' E 003°14'0 0.0
2018-Feb-14 19:28N 51°18' E 003°14'0 0.0
2018-Feb-14 18:58N 51°18' E 003°14'0 0.0
2018-Feb-14 18:28N 51°18' E 003°14'0 0.0
2018-Feb-14 17:58N 51°18' E 003°14'0 0.0
2018-Feb-14 17:28N 51°18' E 003°14'0 0.0
2018-Feb-14 16:58N 51°18' E 003°14'0 0.0
2018-Feb-14 16:28N 51°18' E 003°14'0 0.0
2018-Feb-14 15:58N 51°18' E 003°14'0 0.0
2018-Feb-14 15:28N 51°18' E 003°14'0 0.0
2018-Feb-14 14:58N 51°18' E 003°14'0 0.0
2018-Feb-14 14:28N 51°18' E 003°14'0 0.0
2018-Feb-14 13:58N 51°18' E 003°14'0 0.0
2018-Feb-14 13:28N 51°18' E 003°14'0 0.0
2018-Feb-14 12:58N 51°18' E 003°14'0 0.0
2018-Feb-14 12:28N 51°18' E 003°14'0 0.0
2018-Feb-14 11:58N 51°18' E 003°14'0 0.0
2018-Feb-14 11:28N 51°18' E 003°14'0 0.0
2018-Feb-14 10:58N 51°18' E 003°14'0 0.0
2018-Feb-14 10:28N 51°18' E 003°14'0 0.0
2018-Feb-14 09:58N 51°18' E 003°14'0 0.0
2018-Feb-14 09:28N 51°18' E 003°15'0 0.0
2018-Feb-14 08:58N 51°18' E 003°14'0 0.0
2018-Feb-14 08:28N 51°18' E 003°15'0 0.0
2018-Feb-14 07:58N 51°18' E 003°14'0 0.0
2018-Feb-14 07:28N 51°18' E 003°14'0 0.0
2018-Feb-14 06:58N 51°18' E 003°14'0 0.0
2018-Feb-14 06:28N 51°18' E 003°14'0 0.0
2018-Feb-14 05:58N 51°18' E 003°14'0 0.0
2018-Feb-14 05:28N 51°18' E 003°15'0 0.0
2018-Feb-14 04:58N 51°18' E 003°14'0 0.0
2018-Feb-14 04:31N 51°18' E 003°14'0 0.0
2018-Feb-14 04:00N 51°18' E 003°14'0 0.0
2018-Feb-14 03:30N 51°18' E 003°14'0 0.0
2018-Feb-14 03:00N 51°18' E 003°14'0 0.0
2018-Feb-14 02:30N 51°18' E 003°14'0 0.0
2018-Feb-14 02:00N 51°18' E 003°14'0 0.0
2018-Feb-14 01:30N 51°18' E 003°14'0 0.0
2018-Feb-14 01:00N 51°18' E 003°14'0 0.0
2018-Feb-14 00:30N 51°18' E 003°15'0 0.0
2018-Feb-14 00:00N 51°18' E 003°15'0 0.0
2018-Feb-13 23:30N 51°18' E 003°14'0 0.0
2018-Feb-13 23:00N 51°18' E 003°14'0 0.0
2018-Feb-13 22:30N 51°18' E 003°14'0 0.0
2018-Feb-13 22:00N 51°18' E 003°14'0 0.0
2018-Feb-13 21:30N 51°18' E 003°14'0 0.0
2018-Feb-13 21:00N 51°18' E 003°14'0 0.0
2018-Feb-13 20:30N 51°18' E 003°14'0 0.0
2018-Feb-13 20:00N 51°18' E 003°14'0 0.0
2018-Feb-13 19:30N 51°18' E 003°14'0 0.0
2018-Feb-13 19:00N 51°18' E 003°14'0 0.0
2018-Feb-13 18:30N 51°18' E 003°14'0 0.0
2018-Feb-13 17:57N 51°18' E 003°14'0 0.0
2018-Feb-13 17:30N 51°18' E 003°14'0 0.0
2018-Feb-13 17:00N 51°18' E 003°14'0 0.0
2018-Feb-13 16:30N 51°18' E 003°14'0 0.0
2018-Feb-13 16:00N 51°18' E 003°14'0 0.0
2018-Feb-13 15:30N 51°18' E 003°14'0 0.0
2018-Feb-13 15:00N 51°18' E 003°14'0 0.0
2018-Feb-13 14:30N 51°18' E 003°14'0 0.0
2018-Feb-13 13:57N 51°18' E 003°14'0 0.0
2018-Feb-13 13:27N 51°18' E 003°14'0 0.0
2018-Feb-13 13:00N 51°18' E 003°14'0 0.0
2018-Feb-13 12:30N 51°18' E 003°14'0 0.0
2018-Feb-13 11:57N 51°18' E 003°14'0 0.0
2018-Feb-13 11:30N 51°18' E 003°14'0 0.0
2018-Feb-13 11:00N 51°18' E 003°15'0 0.0
2018-Feb-13 10:30N 51°18' E 003°15'0 0.0
2018-Feb-13 10:00N 51°18' E 003°14'0 0.0
2018-Feb-13 09:30N 51°18' E 003°15'0 0.0
2018-Feb-13 09:00N 51°18' E 003°14'0 0.0
2018-Feb-13 08:30N 51°18' E 003°14'0 0.0
2018-Feb-13 08:00N 51°18' E 003°14'0 0.0
2018-Feb-13 07:30N 51°18' E 003°14'0 0.0
2018-Feb-13 07:00N 51°18' E 003°14'0 0.0
2018-Feb-13 06:30N 51°18' E 003°14'0 0.0
2018-Feb-13 06:00N 51°18' E 003°14'0 0.0
2018-Feb-13 05:30N 51°18' E 003°15'0 0.0
2018-Feb-13 05:00N 51°18' E 003°14'0 0.0
2018-Feb-13 04:30N 51°18' E 003°14'0 0.0
2018-Feb-13 04:00N 51°18' E 003°14'0 0.0
2018-Feb-13 03:30N 51°18' E 003°14'0 0.0
2018-Feb-13 03:00N 51°18' E 003°14'0 0.0
2018-Feb-13 02:30N 51°18' E 003°14'0 0.0
2018-Feb-13 02:00N 51°18' E 003°14'0 0.0
2018-Feb-13 01:30N 51°18' E 003°15'0 0.0
2018-Feb-13 01:00N 51°18' E 003°14'1 1.1
2018-Feb-13 00:28N 51°18' E 003°14'0 0.2
2018-Feb-12 23:58N 51°18' E 003°14'0 0.0
2018-Feb-12 23:28N 51°18' E 003°14'0 0.0
2018-Feb-12 22:58N 51°18' E 003°14'0 0.0
2018-Feb-12 22:28N 51°18' E 003°14'0 0.0
2018-Feb-12 21:58N 51°18' E 003°14'0 0.0
2018-Feb-12 21:28N 51°18' E 003°14'0 0.0
2018-Feb-12 20:58N 51°18' E 003°14'0 0.0
2018-Feb-12 20:28N 51°18' E 003°14'0 0.0
2018-Feb-12 19:58N 51°18' E 003°14'0 0.0
2018-Feb-12 19:25N 51°18' E 003°14'0 0.0
2018-Feb-12 18:58N 51°18' E 003°14'0 0.0
2018-Feb-12 18:28N 51°18' E 003°14'0 0.0
2018-Feb-12 17:58N 51°18' E 003°14'  

Dump ship's entire track history